aviador You're here:

KGPT Decoded Metar

GULFPORT in MS, USA
Report Time2017-08-16 19:24:00
UTC Time2017-08-16 19:33:44
Flight Rules mvfr MVFR
Wind350° at 05 kt
W.Decomp.*RWY 36: 4.9 kt HW 1 kt LCW
RWY 32: 4.4 kt HW 2.3 kt RCW
W.Rank350° ranks 5
Current wind is below 350° avg. (7.3)
Visibility9999 m
Phenomena:N/A
Clouds:Broken 022 Hf
Overcast 030 Hf
Expected CloudBase > 2,400 ft AGL from Temp-Dew spread
Ceiling2,200 ft
Temp29°C (ISA +14)
Dew Point23°C (70% RH)
Heat Index32.7°C
QNH1017 hPa
Density Alt1,900 ft
Elevation46 ft
Report Wrong Elevation
Raw Report
KGPT 161924Z 35005KT 10SM BKN022 OVC030 29/23 A3004 RMK AO2 LTG
DSNT E AND NW TSE00E01B08E23 T02940233 PNO=

Extra information for KGPT:More info

Metar Taf Metar & Taf Last 4 Metars F.Rules Stats Wind Profile Meteogram Temp Stats Airport Information Weather charts Add Link Nearby VenuesMetar ALERT Operation Metar Decoded Social comments

AIRNAV info for KGPT